Mahaska, Kansas
Current Conditions -  °F | °C
As of 6:15 PM on Tuesday 25 Nov 2014 (Local Time) from KHJH Reporting Station
Overcast Overcast  
Wind Chill: 41°   Ceiling: 7000
Heat Index: 47°   Visibility: 10mi
Dew Point: 18°   Wind: 12mph
Humidity: 32%   Direction: 200°SSW
Pressure: 29.92"   Gusts: 17mph
Location:  39.99°N, 97.35°W
Report Text: KHJH 260015Z AUTO 20010G15KT 10SM SCT045 BKN070 OVC075 08/M08 A2992 RMK AO2 T00811077
Loading
Personal Weather Stations






























Interactive Weather Map New forecast layout! Learn more

10-Day Weather Forecast

Advertisements
Track Severe Weather on mobile